Terminal Aerodrome Forecast
Issued by NWS

Home | Current Version | Previous Version | Text Only | Print | Product List | Glossary On
Versions: 1 2 3 4 5 6 7 8 9 10 11 12 13 14 15 16 17 18 19 20 21 22
171
FTUS43 KSGF 271123 CCA
TAFJLN
TAF COR
KJLN 271123Z 2712/2812 VRB03KT 4SM BR VCTS BKN025CB
      TEMPO 2712/2713 2SM BR
     FM271400 14005KT P6SM VCTS BKN040CB
     FM271600 21005KT P6SM VCTS BKN040CB
      TEMPO 2720/2724 2SM TSRA OVC015CB
     FM280100 VRB03KT P6SM SCT250
     FM280500 VRB03KT 3SM BR SCT250=

USA.gov is the U.S. government's official web portal to all federal, state and local government web resources and services.